Time;durP1;ratioP1;P1;durP2;ratioP2;P2;SDS_P1;SDS_P2;PMS_P1;PMS_P2;Temp;Humidity;BMP_temperature;BMP_pressure;BME280_temperature;BME280_humidity;BME280_pressure;Samples;Min_cycle;Max_cycle;Signal;HPM_P1;HPM_P2
2024/03/20 12:41:20;;;;;;;;;1.50;1.50;;;;;;;;5027304;27;14099;-71
2024/03/20 12:43:46;;;;;;;;;3.00;3.00;;;;;;;;5048374;28;8825;-73
2024/03/20 12:46:13;;;;;;;;;2.75;2.75;;;;;;;;5047489;28;8803;-74
2024/03/20 12:48:38;;;;;;;;;3.75;3.75;;;;;;;;5047724;28;8792;-69
2024/03/20 12:51:04;;;;;;;;;14.00;8.67;;;;;;;;5047231;28;8899;-69
2024/03/20 12:53:30;;;;;;;;;4.00;4.00;;;;;;;;5044277;28;8916;-69
2024/03/20 12:55:56;;;;;;;;;5.00;5.00;;;;;;;;5046530;28;8807;-70
2024/03/20 12:58:21;;;;;;;;;5.00;5.00;;;;;;;;5046265;28;8835;-70
2024/03/20 13:00:47;;;;;;;;;5.00;4.00;;;;;;;;5046675;28;8954;-69
2024/03/20 13:03:19;;;;;;;;;5.67;4.00;;;;;;;;5046801;28;8928;-70
2024/03/20 13:05:47;;;;;;;;;4.00;4.00;;;;;;;;5046544;28;9751;-69
2024/03/20 13:08:15;;;;;;;;;4.00;4.00;;;;;;;;5046737;28;9041;-70
2024/03/20 13:10:41;;;;;;;;;5.00;5.00;;;;;;;;5046806;28;8977;-70
2024/03/20 13:13:15;;;;;;;;;8.00;5.67;;;;;;;;5045434;28;9037;-72
2024/03/20 13:15:40;;;;;;;;;4.33;4.33;;;;;;;;5046620;28;8860;-73
2024/03/20 13:18:25;;;;;;;;;4.67;4.67;;;;;;;;5045295;28;9734;-72
2024/03/20 13:20:50;;;;;;;;;5.00;5.00;;;;;;;;5044857;28;8901;-72
2024/03/20 13:23:18;;;;;;;;;5.00;5.00;;;;;;;;5046662;28;9188;-72
2024/03/20 13:25:43;;;;;;;;;4.00;4.00;;;;;;;;5044970;28;8842;-71
2024/03/20 13:28:12;;;;;;;;;4.67;4.00;;;;;;;;5046355;28;9119;-71
2024/03/20 13:30:38;;;;;;;;;3.00;3.00;;;;;;;;5046515;28;8811;-71
2024/03/20 13:33:05;;;;;;;;;4.00;4.00;;;;;;;;5046239;28;9260;-71
2024/03/20 13:35:31;;;;;;;;;5.00;4.00;;;;;;;;5046380;28;8796;-72
2024/03/20 13:38:04;;;;;;;;;3.50;3.50;;;;;;;;5046430;28;9125;-72
2024/03/20 13:43:18;;;;;;;;;4.33;3.67;;;;;;;;5045908;28;10684;-71
2024/03/20 13:45:56;;;;;;;;;2.67;2.67;;;;;;;;5043828;28;8889;-73
2024/03/20 13:48:22;;;;;;;;;2.33;2.00;;;;;;;;5043684;28;9215;-74
2024/03/20 13:50:50;;;;;;;;;4.33;4.33;;;;;;;;5043234;28;9037;-75
2024/03/20 13:53:16;;;;;;;;;2.00;2.00;;;;;;;;5032710;28;8922;-75
2024/03/20 13:55:41;;;;;;;;;3.00;3.00;;;;;;;;5032631;28;9070;-75
2024/03/20 13:58:07;;;;;;;;;3.00;2.67;;;;;;;;5033243;28;9025;-75
2024/03/20 14:00:33;;;;;;;;;2.00;2.00;;;;;;;;5032504;28;8970;-74
2024/03/20 14:02:58;;;;;;;;;2.00;2.00;;;;;;;;5032639;28;9079;-75
2024/03/20 14:05:24;;;;;;;;;1.33;1.33;;;;;;;;5032314;28;8823;-75
2024/03/20 14:07:49;;;;;;;;;2.00;2.00;;;;;;;;5032605;28;8872;-75
2024/03/20 14:10:15;;;;;;;;;3.33;2.00;;;;;;;;5048653;28;8942;-75
2024/03/20 14:12:41;;;;;;;;;2.00;2.00;;;;;;;;5032781;28;8799;-75
2024/03/20 14:15:12;;;;;;;;;1.00;1.00;;;;;;;;5033149;28;9040;-75
2024/03/20 14:17:37;;;;;;;;;2.00;2.00;;;;;;;;5033677;28;9663;-75
2024/03/20 14:20:03;;;;;;;;;2.67;2.67;;;;;;;;5031190;28;9382;-74
2024/03/20 14:22:29;;;;;;;;;1.67;1.67;;;;;;;;5031366;28;8815;-74
2024/03/20 14:24:55;;;;;;;;;2.67;1.67;;;;;;;;5032085;28;9059;-75
2024/03/20 14:27:20;;;;;;;;;2.00;2.00;;;;;;;;5032918;28;8846;-74
2024/03/20 14:29:46;;;;;;;;;2.67;1.00;;;;;;;;5033510;28;8804;-74
2024/03/20 14:32:12;;;;;;;;;2.00;2.00;;;;;;;;5033233;28;8808;-74
2024/03/20 14:34:38;;;;;;;;;1.00;1.00;;;;;;;;5031418;28;8820;-75
2024/03/20 14:37:04;;;;;;;;;3.67;3.67;;;;;;;;5033407;28;8818;-74
2024/03/20 14:39:30;;;;;;;;;3.00;3.00;;;;;;;;5032856;28;8958;-75
2024/03/20 14:41:57;;;;;;;;;3.67;3.00;;;;;;;;5032891;28;8958;-72
2024/03/20 14:44:22;;;;;;;;;3.00;3.00;;;;;;;;5032253;28;8784;-72
2024/03/20 14:46:48;;;;;;;;;3.33;3.00;;;;;;;;5032219;28;8896;-72
2024/03/20 14:49:14;;;;;;;;;3.00;3.00;;;;;;;;5031933;28;8836;-73
2024/03/20 14:51:40;;;;;;;;;3.00;3.00;;;;;;;;5032382;28;8788;-73
2024/03/20 14:54:09;;;;;;;;;4.67;2.33;;;;;;;;5032114;28;8941;-71
2024/03/20 14:56:36;;;;;;;;;3.67;3.00;;;;;;;;5030853;28;8823;-71
2024/03/20 14:59:01;;;;;;;;;2.00;2.00;;;;;;;;5030550;28;8981;-72
2024/03/20 15:01:27;;;;;;;;;2.00;2.00;;;;;;;;5030584;28;8907;-73
2024/03/20 15:03:53;;;;;;;;;6.00;5.00;;;;;;;;5031003;28;8808;-72
2024/03/20 15:06:19;;;;;;;;;2.33;2.33;;;;;;;;5032055;28;8828;-71
2024/03/20 15:08:45;;;;;;;;;3.67;3.67;;;;;;;;5032096;28;9022;-71
2024/03/20 15:11:21;;;;;;;;;5.33;2.67;;;;;;;;5031789;28;9214;-71
2024/03/20 15:13:47;;;;;;;;;1.50;1.25;;;;;;;;5031704;28;8873;-71
2024/03/20 15:16:14;;;;;;;;;2.75;2.00;;;;;;;;5032044;28;8796;-70
2024/03/20 15:18:41;;;;;;;;;2.00;2.00;;;;;;;;5011915;28;8783;-71
2024/03/20 15:21:12;;;;;;;;;2.00;2.00;;;;;;;;5012108;28;9005;-71
2024/03/20 15:23:37;;;;;;;;;1.67;1.67;;;;;;;;5011911;28;8868;-70
2024/03/20 15:26:04;;;;;;;;;2.00;2.00;;;;;;;;5011645;28;8893;-73
2024/03/20 15:28:30;;;;;;;;;2.00;2.00;;;;;;;;5011668;28;8790;-73
2024/03/20 15:30:57;;;;;;;;;2.00;2.00;;;;;;;;5011549;28;8967;-73
2024/03/20 15:33:22;;;;;;;;;4.00;2.00;;;;;;;;5011962;28;8814;-73
2024/03/20 15:35:48;;;;;;;;;2.00;2.00;;;;;;;;5018047;28;9160;-71
2024/03/20 15:38:13;;;;;;;;;3.00;3.00;;;;;;;;5031414;28;8796;-75
2024/03/20 15:40:38;;;;;;;;;3.00;3.00;;;;;;;;5040738;28;8844;-75
2024/03/20 15:43:04;;;;;;;;;3.00;3.00;;;;;;;;5031403;28;8783;-74
2024/03/20 15:45:29;;;;;;;;;2.00;2.00;;;;;;;;5031200;28;9003;-75
2024/03/20 15:47:54;;;;;;;;;4.00;2.33;;;;;;;;5031122;28;8796;-75
2024/03/20 15:50:21;;;;;;;;;4.00;4.00;;;;;;;;5030905;28;8812;-73
2024/03/20 15:52:47;;;;;;;;;3.67;3.67;;;;;;;;5046458;28;9569;-73
2024/03/20 15:55:13;;;;;;;;;4.33;4.33;;;;;;;;5030982;28;9156;-74
2024/03/20 15:57:41;;;;;;;;;4.33;4.33;;;;;;;;5031054;28;8838;-74
